createdAt,value
2023-05-12T00:00:17.700Z,60.59
2023-05-12T00:03:11.133Z,60.67
2023-05-12T00:05:43.504Z,60.99
2023-05-12T00:08:15.648Z,60.78
2023-05-12T00:10:47.972Z,60.91
2023-05-12T00:13:23.736Z,61.27
2023-05-12T00:15:56.854Z,61.34
2023-05-12T00:18:29.407Z,61.32
2023-05-12T00:21:01.634Z,61.62
2023-05-12T00:23:33.894Z,61.68
2023-05-12T00:26:06.097Z,61.86
2023-05-12T00:28:38.247Z,62.11
2023-05-12T00:31:10.373Z,62.13
2023-05-12T00:33:42.634Z,62.03
2023-05-12T00:36:15.222Z,62.55
2023-05-12T00:38:47.431Z,62.64
2023-05-12T00:41:19.651Z,62.82
2023-05-12T00:43:52.521Z,62.92
2023-05-12T00:46:25.152Z,63.01
2023-05-12T00:48:57.460Z,63.15
2023-05-12T00:51:31.100Z,63.17
2023-05-12T00:54:03.802Z,63.35
2023-05-12T00:56:39.563Z,63.23
2023-05-12T00:59:13.439Z,63.41
2023-05-12T01:01:47.798Z,63.66
2023-05-12T01:04:20.515Z,63.52
2023-05-12T01:06:59.483Z,63.76
2023-05-12T01:09:34.384Z,63.92
2023-05-12T01:12:07.695Z,63.82
2023-05-12T01:14:42.121Z,63.90
2023-05-12T01:17:16.937Z,64.11
2023-05-12T01:19:53.510Z,64.32
2023-05-12T01:22:27.328Z,64.37
2023-05-12T01:25:01.288Z,64.46
2023-05-12T01:27:36.061Z,64.32
2023-05-12T01:30:12.101Z,64.35
2023-05-12T01:32:48.190Z,64.65
2023-05-12T01:35:20.587Z,64.63
2023-05-12T01:38:00.697Z,64.76
2023-05-12T01:40:33.038Z,64.70
2023-05-12T01:43:05.489Z,64.85
2023-05-12T01:45:38.823Z,64.82
2023-05-12T01:48:11.328Z,65.00
2023-05-12T01:50:43.532Z,65.03
2023-05-12T01:53:20.566Z,65.17
2023-05-12T01:55:52.714Z,65.19
2023-05-12T01:58:26.256Z,65.36
2023-05-12T02:00:58.599Z,65.57
2023-05-12T02:03:30.811Z,65.60
2023-05-12T02:06:03.426Z,65.89
2023-05-12T02:08:36.160Z,65.81
2023-05-12T02:11:09.845Z,65.85
2023-05-12T02:13:44.579Z,65.86
2023-05-12T02:16:17.846Z,65.88
2023-05-12T02:18:50.776Z,65.90
2023-05-12T02:21:23.042Z,66.15
2023-05-12T02:23:56.468Z,66.06
2023-05-12T02:26:28.713Z,66.22
2023-05-12T02:29:00.946Z,66.38
2023-05-12T02:31:33.573Z,66.65
2023-05-12T02:34:06.727Z,66.80
2023-05-12T02:36:39.221Z,66.86
2023-05-12T02:39:11.622Z,66.79
2023-05-12T02:41:43.751Z,67.12
2023-05-12T02:44:17.336Z,67.25
2023-05-12T02:46:49.459Z,67.13
2023-05-12T02:49:24.180Z,67.24
2023-05-12T02:51:56.389Z,67.40
2023-05-12T02:54:29.024Z,67.46
2023-05-12T02:57:05.101Z,67.71
2023-05-12T02:59:37.330Z,67.74
2023-05-12T03:02:09.505Z,68.00
2023-05-12T03:04:41.897Z,68.03
2023-05-12T03:07:14.155Z,68.01
2023-05-12T03:09:46.460Z,68.30
2023-05-12T03:12:18.706Z,68.36
2023-05-12T03:14:51.340Z,68.50
2023-05-12T03:17:23.597Z,68.48
2023-05-12T03:19:55.782Z,68.56
2023-05-12T03:22:27.980Z,68.73
2023-05-12T03:25:03.893Z,69.04
2023-05-12T03:27:36.147Z,69.18
2023-05-12T03:30:10.790Z,69.38
2023-05-12T03:32:44.460Z,69.53
2023-05-12T03:35:16.661Z,69.66
2023-05-12T03:37:49.190Z,69.75
2023-05-12T03:40:21.632Z,69.91
2023-05-12T03:42:54.759Z,70.03
2023-05-12T03:45:26.834Z,70.21
2023-05-12T03:47:59.299Z,70.13
2023-05-12T03:50:31.620Z,70.42
2023-05-12T03:53:04.984Z,70.65
2023-05-12T03:55:37.456Z,70.89
2023-05-12T03:58:11.785Z,70.89
2023-05-12T04:00:44.293Z,71.06
2023-05-12T04:03:19.463Z,70.91
2023-05-12T04:05:51.990Z,70.94
2023-05-12T04:08:24.167Z,71.08
2023-05-12T04:10:57.839Z,71.10
2023-05-12T04:13:31.777Z,71.34
2023-05-12T04:16:04.384Z,71.23
2023-05-12T04:18:37.050Z,71.32
2023-05-12T04:21:09.261Z,71.29
2023-05-12T04:26:50.886Z,71.31
2023-05-12T04:29:23.234Z,70.88
2023-05-12T04:31:57.340Z,70.90
2023-05-12T04:34:34.138Z,70.78
2023-05-12T04:37:06.624Z,70.81
2023-05-12T04:39:39.757Z,70.60
2023-05-12T04:42:12.134Z,70.59
2023-05-12T04:44:46.168Z,70.21
2023-05-12T04:47:19.068Z,70.40
2023-05-12T04:49:51.457Z,70.12
2023-05-12T04:52:24.792Z,69.89
2023-05-12T04:54:57.467Z,69.54
2023-05-12T04:57:30.417Z,69.67
2023-05-12T05:00:05.792Z,69.64
2023-05-12T05:02:38.188Z,69.61
2023-05-12T05:05:12.034Z,69.27
2023-05-12T05:07:45.036Z,69.22
2023-05-12T05:10:17.182Z,69.28
2023-05-12T05:12:52.172Z,69.24
2023-05-12T05:15:24.615Z,68.86
2023-05-12T05:17:56.857Z,68.88
2023-05-12T05:20:29.436Z,68.98
2023-05-12T05:23:05.212Z,68.84
2023-05-12T05:25:37.567Z,68.77
2023-05-12T05:28:09.942Z,68.03
2023-05-12T05:30:44.491Z,67.56
2023-05-12T05:33:16.804Z,67.24
2023-05-12T05:35:49.487Z,67.45
2023-05-12T05:38:21.806Z,67.21
2023-05-12T05:40:54.659Z,67.65
2023-05-12T05:43:30.004Z,67.09
2023-05-12T05:46:02.981Z,67.15
2023-05-12T05:48:36.589Z,66.97
2023-05-12T05:51:11.578Z,67.05
2023-05-12T05:53:44.631Z,66.81
2023-05-12T05:56:18.154Z,66.23
2023-05-12T05:58:50.320Z,66.51
2023-05-12T06:01:22.481Z,66.08
2023-05-12T06:03:59.186Z,65.87
2023-05-12T06:06:31.597Z,65.52
2023-05-12T06:09:04.989Z,65.29
2023-05-12T06:11:38.375Z,65.21
2023-05-12T06:14:11.669Z,64.87
2023-05-12T06:16:43.799Z,65.25
2023-05-12T06:19:17.251Z,64.82
2023-05-12T06:21:49.365Z,64.37
2023-05-12T06:24:24.260Z,63.50
2023-05-12T06:26:57.066Z,64.06
2023-05-12T06:29:29.402Z,64.22
2023-05-12T06:32:05.673Z,63.69
2023-05-12T06:34:40.081Z,63.58
2023-05-12T06:37:14.587Z,63.36
2023-05-12T06:39:46.796Z,63.56
2023-05-12T06:42:18.974Z,62.72
2023-05-12T06:44:55.861Z,60.99
2023-05-12T06:47:28.268Z,62.05
2023-05-12T06:50:03.450Z,61.66
2023-05-12T06:52:35.567Z,61.79
2023-05-12T06:59:21.254Z,61.50
2023-05-12T07:01:52.863Z,61.00
2023-05-12T07:04:21.995Z,60.50
2023-05-12T07:06:51.478Z,60.31
2023-05-12T07:09:20.376Z,59.97
2023-05-12T07:11:49.504Z,59.25
2023-05-12T07:14:18.415Z,59.39
2023-05-12T07:16:47.394Z,58.82
2023-05-12T07:19:16.268Z,59.35
2023-05-12T07:21:46.388Z,59.33
2023-05-12T07:24:16.089Z,59.53
2023-05-12T07:26:47.576Z,58.81
2023-05-12T07:29:17.198Z,57.88
2023-05-12T07:31:46.622Z,57.81
2023-05-12T07:34:15.662Z,58.19
2023-05-12T07:36:44.982Z,56.53
2023-05-12T07:39:19.051Z,56.93
2023-05-12T07:41:48.798Z,54.57
2023-05-12T07:44:17.704Z,54.48
2023-05-12T07:46:46.717Z,54.37
2023-05-12T07:49:15.497Z,55.43
2023-05-12T07:51:49.888Z,55.94
2023-05-12T07:54:27.358Z,54.87
2023-05-12T07:56:57.537Z,55.05
2023-05-12T07:59:26.529Z,55.00
2023-05-12T08:01:55.453Z,54.80
2023-05-12T08:04:31.868Z,54.32
2023-05-12T08:07:01.160Z,53.51
2023-05-12T08:09:30.540Z,52.99
2023-05-12T08:12:01.788Z,51.79
2023-05-12T08:14:34.928Z,51.57
2023-05-12T08:17:04.439Z,52.73
2023-05-12T08:19:33.477Z,51.95
2023-05-12T08:22:04.616Z,52.06
2023-05-12T08:24:33.791Z,50.82
2023-05-12T08:27:03.292Z,50.17
2023-05-12T08:29:32.202Z,50.86
2023-05-12T08:32:01.028Z,51.72
2023-05-12T08:34:30.362Z,50.14
2023-05-12T08:36:59.173Z,49.32
2023-05-12T08:39:30.389Z,48.91
2023-05-12T08:42:10.483Z,49.14
2023-05-12T08:44:40.643Z,48.80
2023-05-12T08:47:12.734Z,47.58
2023-05-12T08:49:44.089Z,46.51
2023-05-12T08:52:14.451Z,47.11
2023-05-12T08:54:55.606Z,48.19
2023-05-12T08:57:27.499Z,47.41
2023-05-12T08:59:59.584Z,47.87
2023-05-12T09:02:44.710Z,48.12
2023-05-12T09:05:20.315Z,47.23
2023-05-12T09:07:50.340Z,45.05
2023-05-12T09:13:01.891Z,45.25
2023-05-12T09:15:37.999Z,45.85
2023-05-12T09:18:07.056Z,45.44
2023-05-12T09:20:36.325Z,45.13
2023-05-12T09:23:15.279Z,43.05
2023-05-12T09:25:44.701Z,44.00
2023-05-12T09:28:15.455Z,44.02
2023-05-12T09:30:44.265Z,43.43
2023-05-12T09:33:14.024Z,43.96
2023-05-12T09:35:44.397Z,44.25
2023-05-12T09:38:14.761Z,43.21
2023-05-12T09:40:45.533Z,41.50
2023-05-12T09:43:15.946Z,41.36
2023-05-12T09:45:50.299Z,43.02
2023-05-12T09:48:19.143Z,42.33
2023-05-12T09:50:49.830Z,41.86
2023-05-12T09:53:22.354Z,42.15
2023-05-12T09:55:51.394Z,42.07
2023-05-12T09:58:20.870Z,42.76
2023-05-12T10:01:13.641Z,41.82
2023-05-12T10:03:50.968Z,41.58
2023-05-12T10:06:26.393Z,40.96
2023-05-12T10:09:04.494Z,40.36
2023-05-12T10:11:34.694Z,40.20
2023-05-12T10:14:03.746Z,40.84
2023-05-12T10:16:33.427Z,41.30
2023-05-12T10:19:03.591Z,41.03
2023-05-12T10:21:32.500Z,40.68
2023-05-12T10:24:03.127Z,40.03
2023-05-12T10:26:34.313Z,40.27
2023-05-12T10:29:03.830Z,39.10
2023-05-12T10:31:35.405Z,38.21
2023-05-12T10:34:04.797Z,38.38
2023-05-12T10:36:45.894Z,37.72
2023-05-12T10:39:15.483Z,37.79
2023-05-12T10:41:45.969Z,37.85
2023-05-12T10:44:14.859Z,38.20
2023-05-12T10:46:44.355Z,37.39
2023-05-12T10:49:15.581Z,37.87
2023-05-12T10:51:50.481Z,37.02
2023-05-12T10:54:24.880Z,36.72
2023-05-12T10:57:13.918Z,36.77
2023-05-12T10:59:53.164Z,37.75
2023-05-12T11:02:28.110Z,37.51
2023-05-12T11:05:02.647Z,37.54
2023-05-12T11:07:35.245Z,37.34
2023-05-12T11:13:30.992Z,37.34
2023-05-12T11:15:59.883Z,36.60
2023-05-12T11:18:28.928Z,37.06
2023-05-12T11:20:57.771Z,37.31
2023-05-12T11:23:28.346Z,36.66
2023-05-12T11:25:57.575Z,37.00
2023-05-12T11:28:26.561Z,36.53
2023-05-12T11:30:55.855Z,36.84
2023-05-12T11:33:24.808Z,36.25
2023-05-12T11:35:53.657Z,36.91
2023-05-12T11:38:24.046Z,35.48
2023-05-12T11:40:53.247Z,35.76
2023-05-12T11:43:22.331Z,35.36
2023-05-12T11:45:51.226Z,35.31
2023-05-12T11:48:21.191Z,34.78
2023-05-12T11:50:51.084Z,35.18
2023-05-12T11:53:19.923Z,33.87
2023-05-12T11:55:50.426Z,34.25
2023-05-12T11:58:25.984Z,34.79
2023-05-12T12:00:56.619Z,32.70
2023-05-12T12:03:33.005Z,33.78
2023-05-12T12:06:10.359Z,34.00
2023-05-12T12:08:50.557Z,33.31
2023-05-12T12:11:20.868Z,33.40
2023-05-12T12:13:49.734Z,33.82
2023-05-12T12:16:18.929Z,34.56
2023-05-12T12:18:48.365Z,33.53
2023-05-12T12:21:18.941Z,33.68
2023-05-12T12:23:51.451Z,33.38
2023-05-12T12:26:22.450Z,32.96
2023-05-12T12:28:51.271Z,33.08
2023-05-12T12:31:20.335Z,33.23
2023-05-12T12:33:52.207Z,34.05
2023-05-12T12:36:22.055Z,33.61
2023-05-12T12:38:51.409Z,33.73
2023-05-12T12:41:20.214Z,32.81
2023-05-12T12:43:49.035Z,32.67
2023-05-12T12:46:17.929Z,32.82
2023-05-12T12:48:47.480Z,33.62
2023-05-12T12:51:16.457Z,33.22
2023-05-12T12:53:45.606Z,32.60
2023-05-12T12:56:14.851Z,31.94
2023-05-12T12:58:43.651Z,32.80
2023-05-12T13:01:12.595Z,32.13
2023-05-12T13:03:41.488Z,32.00
2023-05-12T13:06:12.507Z,32.25
2023-05-12T13:08:42.155Z,32.47
2023-05-12T13:11:11.351Z,31.77
2023-05-12T13:13:40.108Z,31.81
2023-05-12T13:16:09.285Z,31.28
2023-05-12T13:18:38.353Z,31.92
2023-05-12T13:21:07.645Z,31.29
2023-05-12T13:23:36.539Z,31.37
2023-05-12T13:26:06.116Z,31.80
2023-05-12T13:28:34.892Z,31.92
2023-05-12T13:31:04.348Z,31.64
2023-05-12T13:33:33.552Z,30.90
2023-05-12T13:36:02.703Z,30.95
2023-05-12T13:38:33.296Z,31.40
2023-05-12T13:41:04.832Z,30.54
2023-05-12T13:43:33.586Z,31.29
2023-05-12T13:46:02.454Z,30.87
2023-05-12T13:48:31.279Z,30.72
2023-05-12T13:51:01.835Z,31.19
2023-05-12T13:53:31.557Z,30.71
2023-05-12T13:56:16.277Z,30.36
2023-05-12T13:58:45.385Z,30.41
2023-05-12T14:01:14.562Z,30.19
2023-05-12T14:03:43.873Z,30.24
2023-05-12T14:06:13.807Z,29.76
2023-05-12T14:08:42.532Z,30.66
2023-05-12T14:11:11.368Z,31.34
2023-05-12T14:13:40.420Z,31.62
2023-05-12T14:16:10.730Z,30.42
2023-05-12T14:18:41.903Z,30.72
2023-05-12T14:21:12.388Z,30.88
2023-05-12T14:23:41.519Z,30.93
2023-05-12T14:26:10.397Z,30.73
2023-05-12T14:28:39.291Z,30.69
2023-05-12T14:31:08.715Z,30.75
2023-05-12T14:33:37.712Z,30.66
2023-05-12T14:36:09.005Z,30.07
2023-05-12T14:38:38.094Z,30.39
2023-05-12T14:41:07.915Z,29.80
2023-05-12T14:43:36.878Z,30.47
2023-05-12T14:46:08.017Z,30.31
2023-05-12T14:48:37.155Z,30.59
2023-05-12T14:51:06.252Z,30.81
2023-05-12T14:53:35.017Z,30.74
2023-05-12T14:56:04.096Z,30.34
2023-05-12T14:58:32.864Z,30.77
2023-05-12T15:01:02.241Z,30.87
2023-05-12T15:03:33.125Z,30.56
2023-05-12T15:06:07.395Z,30.83
2023-05-12T15:08:46.163Z,30.73
2023-05-12T15:11:15.026Z,31.07
2023-05-12T15:13:43.799Z,30.68
2023-05-12T15:16:12.962Z,31.29
2023-05-12T15:18:42.236Z,31.74
2023-05-12T15:21:11.123Z,31.59
2023-05-12T15:23:42.777Z,31.59
2023-05-12T15:28:43.943Z,31.15
2023-05-12T15:31:12.868Z,31.09
2023-05-12T15:33:42.442Z,31.53
2023-05-12T15:36:12.920Z,31.51
2023-05-12T15:38:42.153Z,32.06
2023-05-12T15:41:11.093Z,32.05
2023-05-12T15:43:40.507Z,32.11
2023-05-12T15:46:12.816Z,31.93
2023-05-12T15:48:42.057Z,31.99
2023-05-12T15:51:10.920Z,32.19
2023-05-12T15:53:39.934Z,32.14
2023-05-12T15:56:09.423Z,32.06
2023-05-12T15:58:39.425Z,32.06
2023-05-12T16:01:08.253Z,32.06
2023-05-12T16:03:37.310Z,32.28
2023-05-12T16:06:10.890Z,32.37
2023-05-12T16:08:39.843Z,32.22
2023-05-12T16:11:08.810Z,32.27
2023-05-12T16:13:37.721Z,32.16
2023-05-12T16:16:08.265Z,31.86
2023-05-12T16:18:37.899Z,31.93
2023-05-12T16:21:09.032Z,31.99
2023-05-12T16:23:37.899Z,32.03
2023-05-12T16:26:06.888Z,32.35
2023-05-12T16:28:35.814Z,32.84
2023-05-12T16:31:05.077Z,32.81
2023-05-12T16:33:33.994Z,33.07
2023-05-12T16:36:03.026Z,33.01
2023-05-12T16:38:34.652Z,33.25
2023-05-12T16:41:05.351Z,33.26
2023-05-12T16:43:34.314Z,33.36
2023-05-12T16:46:04.192Z,33.58
2023-05-12T16:48:36.273Z,33.76
2023-05-12T16:51:08.282Z,33.87
2023-05-12T16:53:37.274Z,33.72
2023-05-12T16:56:07.180Z,33.77
2023-05-12T16:58:36.160Z,33.81
2023-05-12T17:01:10.228Z,34.03
2023-05-12T17:03:39.563Z,34.06
2023-05-12T17:06:09.034Z,34.21
2023-05-12T17:08:37.929Z,34.28
2023-05-12T17:11:10.612Z,34.32
2023-05-12T17:13:42.528Z,34.41
2023-05-12T17:16:11.735Z,34.44
2023-05-12T17:21:13.426Z,34.70
2023-05-12T17:23:42.360Z,34.69
2023-05-12T17:26:11.313Z,34.85
2023-05-12T17:28:40.445Z,35.09
2023-05-12T17:31:09.920Z,35.05
2023-05-12T17:33:38.769Z,35.19
2023-05-12T17:36:12.943Z,35.19
2023-05-12T17:38:42.875Z,35.67
2023-05-12T17:41:17.414Z,35.68
2023-05-12T17:43:46.342Z,35.69
2023-05-12T17:46:18.042Z,35.81
2023-05-12T17:48:47.360Z,35.79
2023-05-12T17:51:18.126Z,35.99
2023-05-12T17:53:46.923Z,36.04
2023-05-12T17:56:15.807Z,36.08
2023-05-12T17:58:44.597Z,35.87
2023-05-12T18:01:13.528Z,36.21
2023-05-12T18:03:42.851Z,36.24
2023-05-12T18:06:12.633Z,36.21
2023-05-12T18:08:41.631Z,36.42
2023-05-12T18:11:10.766Z,36.44
2023-05-12T18:13:39.640Z,36.54
2023-05-12T18:16:18.205Z,36.63
2023-05-12T18:18:56.889Z,36.76
2023-05-12T18:21:26.059Z,36.89
2023-05-12T18:23:55.138Z,36.77
2023-05-12T18:26:25.865Z,36.87
2023-05-12T18:28:54.847Z,37.19
2023-05-12T18:31:23.796Z,37.22
2023-05-12T18:33:53.080Z,37.19
2023-05-12T18:36:22.070Z,37.26
2023-05-12T18:38:51.108Z,37.58
2023-05-12T18:41:27.231Z,37.52
2023-05-12T18:43:56.388Z,37.61
2023-05-12T18:46:25.305Z,37.82
2023-05-12T18:48:54.622Z,38.16
2023-05-12T18:51:23.540Z,38.55
2023-05-12T18:53:52.734Z,38.59
2023-05-12T18:56:21.650Z,38.82
2023-05-12T18:58:50.700Z,38.89
2023-05-12T19:01:19.641Z,38.79
2023-05-12T19:03:48.649Z,39.23
2023-05-12T19:06:17.747Z,39.34
2023-05-12T19:08:46.715Z,39.42
2023-05-12T19:11:15.801Z,39.85
2023-05-12T19:13:46.655Z,39.96
2023-05-12T19:16:16.352Z,40.15
2023-05-12T19:18:45.690Z,40.30
2023-05-12T19:21:14.889Z,40.44
2023-05-12T19:23:44.085Z,40.78
2023-05-12T19:26:13.001Z,40.86
2023-05-12T19:28:42.079Z,40.96
2023-05-12T19:31:11.840Z,41.23
2023-05-12T19:33:41.197Z,41.22
2023-05-12T19:36:11.220Z,41.39
2023-05-12T19:38:43.032Z,41.77
2023-05-12T19:41:12.118Z,41.99
2023-05-12T19:43:41.041Z,42.22
2023-05-12T19:46:10.004Z,42.25
2023-05-12T19:48:39.004Z,42.55
2023-05-12T19:51:08.631Z,42.92
2023-05-12T19:53:37.508Z,42.97
2023-05-12T19:56:06.530Z,43.06
2023-05-12T19:58:35.556Z,43.18
2023-05-12T20:01:04.462Z,43.43
2023-05-12T20:03:33.501Z,43.64
2023-05-12T20:06:02.462Z,43.86
2023-05-12T20:08:31.378Z,43.82
2023-05-12T20:11:00.329Z,44.25
2023-05-12T20:13:29.199Z,44.25
2023-05-12T20:15:59.151Z,44.46
2023-05-12T20:18:28.569Z,44.77
2023-05-12T20:20:58.170Z,44.95
2023-05-12T20:23:27.174Z,44.90
2023-05-12T20:25:59.368Z,45.10
2023-05-12T20:28:31.153Z,45.24
2023-05-12T20:31:00.192Z,45.36
2023-05-12T20:33:29.543Z,45.71
2023-05-12T20:35:58.528Z,45.94
2023-05-12T20:38:27.534Z,45.97
2023-05-12T20:40:56.538Z,46.21
2023-05-12T20:43:25.429Z,46.32
2023-05-12T20:45:54.417Z,46.27
2023-05-12T20:48:23.767Z,46.69
2023-05-12T20:50:52.919Z,46.79
2023-05-12T20:53:21.843Z,46.67
2023-05-12T20:55:50.830Z,46.94
2023-05-12T20:58:19.711Z,46.86
2023-05-12T21:00:49.029Z,47.28
2023-05-12T21:03:17.974Z,47.22
2023-05-12T21:05:49.012Z,47.31
2023-05-12T21:08:20.369Z,47.32
2023-05-12T21:10:49.238Z,47.72
2023-05-12T21:13:18.468Z,47.91
2023-05-12T21:15:47.546Z,48.03
2023-05-12T21:18:16.385Z,48.16
2023-05-12T21:20:48.657Z,48.09
2023-05-12T21:23:18.064Z,48.40
2023-05-12T21:25:48.482Z,48.61
2023-05-12T21:28:16.525Z,48.66
2023-05-12T21:30:48.174Z,48.99
2023-05-12T21:33:17.538Z,48.86
2023-05-12T21:35:49.271Z,49.10
2023-05-12T21:38:18.988Z,49.55
2023-05-12T21:40:51.309Z,49.43
2023-05-12T21:43:20.263Z,49.69
2023-05-12T21:45:49.189Z,49.87
2023-05-12T21:48:18.048Z,50.07
2023-05-12T21:50:58.726Z,50.27
2023-05-12T21:53:27.658Z,50.55
2023-05-12T21:55:56.690Z,50.69
2023-05-12T21:58:25.592Z,50.93
2023-05-12T22:00:54.782Z,50.94
2023-05-12T22:03:25.212Z,51.24
2023-05-12T22:05:53.309Z,51.57
2023-05-12T22:08:22.152Z,51.76
2023-05-12T22:10:51.287Z,52.13
2023-05-12T22:13:20.257Z,52.26
2023-05-12T22:15:49.581Z,52.43
2023-05-12T22:18:19.470Z,52.42
2023-05-12T22:20:48.711Z,52.71
2023-05-12T22:23:17.586Z,52.77
2023-05-12T22:25:46.615Z,52.87
2023-05-12T22:28:15.877Z,53.03
2023-05-12T22:31:01.846Z,53.23
2023-05-12T22:33:33.813Z,53.50
2023-05-12T22:36:03.264Z,53.68
2023-05-12T22:38:32.243Z,53.80
2023-05-12T22:41:01.678Z,54.10
2023-05-12T22:43:30.687Z,54.20
2023-05-12T22:45:59.681Z,54.40
2023-05-12T22:48:28.638Z,54.42
2023-05-12T22:51:00.782Z,54.38
2023-05-12T22:53:29.804Z,54.64
2023-05-12T22:55:58.795Z,54.75
2023-05-12T22:58:27.725Z,55.06
2023-05-12T23:00:56.899Z,54.97
2023-05-12T23:03:26.258Z,55.46
2023-05-12T23:05:55.552Z,55.48
2023-05-12T23:08:24.794Z,55.49
2023-05-12T23:10:56.286Z,55.61
2023-05-12T23:13:25.708Z,55.84
2023-05-12T23:15:57.983Z,55.96
2023-05-12T23:18:31.496Z,56.11
2023-05-12T23:21:03.206Z,56.19
2023-05-12T23:23:32.601Z,56.39
2023-05-12T23:26:01.916Z,56.42
2023-05-12T23:28:30.924Z,56.67
2023-05-12T23:30:59.883Z,56.65
2023-05-12T23:33:31.876Z,56.98
2023-05-12T23:36:01.391Z,57.00
2023-05-12T23:38:30.630Z,57.13
2023-05-12T23:40:59.787Z,57.28
2023-05-12T23:43:28.690Z,57.37
2023-05-12T23:45:58.163Z,57.51
2023-05-12T23:48:28.222Z,57.55
2023-05-12T23:50:57.260Z,57.71
2023-05-12T23:53:26.245Z,57.72
2023-05-12T23:55:55.144Z,57.95
2023-05-12T23:58:24.004Z,58.12
